createdAt,value
2017-10-24T00:00:14.581Z,14.10
2017-10-24T00:02:42.918Z,13.60
2017-10-24T00:05:10.994Z,15.53
2017-10-24T00:07:39.105Z,14.07
2017-10-24T00:10:07.233Z,15.23
2017-10-24T00:12:35.327Z,14.50
2017-10-24T00:15:03.423Z,14.07
2017-10-24T00:17:31.543Z,13.97
2017-10-24T00:20:01.617Z,13.97
2017-10-24T00:22:29.747Z,17.03
2017-10-24T00:24:57.839Z,18.53
2017-10-24T00:27:25.946Z,12.93
2017-10-24T00:29:54.058Z,14.83
2017-10-24T00:32:22.174Z,15.60
2017-10-24T00:34:50.269Z,15.73
2017-10-24T00:37:18.386Z,14.97
2017-10-24T00:39:46.494Z,15.63
2017-10-24T00:42:14.617Z,14.77
2017-10-24T00:44:42.709Z,13.80
2017-10-24T00:47:10.864Z,18.80
2017-10-24T00:49:49.933Z,15.90
2017-10-24T00:52:18.041Z,14.17
2017-10-24T00:54:46.147Z,16.40
2017-10-24T00:57:14.265Z,15.33
2017-10-24T00:59:43.129Z,15.00
2017-10-24T01:02:12.020Z,17.03
2017-10-24T01:04:40.894Z,16.77
2017-10-24T01:07:09.781Z,15.80
2017-10-24T01:09:37.910Z,16.53
2017-10-24T01:12:06.797Z,17.77
2017-10-24T01:14:53.585Z,14.83
2017-10-24T01:17:22.486Z,20.67
2017-10-24T01:19:50.590Z,16.10
2017-10-24T01:22:24.150Z,18.80
2017-10-24T01:24:52.269Z,16.07
2017-10-24T01:27:21.152Z,15.87
2017-10-24T01:29:49.265Z,16.57
2017-10-24T01:32:20.689Z,17.83
2017-10-24T01:34:48.810Z,17.10
2017-10-24T01:37:16.914Z,17.97
2017-10-24T01:39:45.027Z,17.03
2017-10-24T01:42:13.129Z,17.43
2017-10-24T01:44:41.241Z,17.27
2017-10-24T01:47:25.970Z,16.73
2017-10-24T01:49:55.057Z,16.37
2017-10-24T01:52:35.309Z,16.23
2017-10-24T01:55:03.417Z,17.03
2017-10-24T01:57:39.381Z,16.70
2017-10-24T02:00:07.486Z,15.83
2017-10-24T02:02:35.596Z,17.50
2017-10-24T02:05:04.474Z,17.03
2017-10-24T02:07:32.567Z,16.93
2017-10-24T02:10:00.678Z,17.80
2017-10-24T02:12:28.798Z,18.80
2017-10-24T02:14:56.911Z,22.07
2017-10-24T02:17:25.010Z,15.47
2017-10-24T02:19:53.125Z,15.70
2017-10-24T02:22:21.229Z,19.03
2017-10-24T02:24:49.346Z,16.50
2017-10-24T02:27:17.461Z,15.40
2017-10-24T02:29:46.342Z,17.10
2017-10-24T02:32:15.198Z,17.00
2017-10-24T02:34:44.075Z,18.13
2017-10-24T02:37:17.416Z,16.47
2017-10-24T02:39:45.530Z,14.43
2017-10-24T02:42:13.638Z,15.00
2017-10-24T02:44:41.774Z,17.27
2017-10-24T02:47:17.291Z,18.90
2017-10-24T02:49:45.423Z,15.27
2017-10-24T02:52:14.281Z,16.63
2017-10-24T02:54:44.378Z,14.43
2017-10-24T02:57:12.487Z,14.87
2017-10-24T02:59:40.600Z,14.93
2017-10-24T03:02:09.518Z,18.70
2017-10-24T03:04:38.406Z,16.87
2017-10-24T03:07:06.533Z,16.00
2017-10-24T03:09:34.636Z,14.50
2017-10-24T03:12:02.742Z,14.63
2017-10-24T03:14:30.877Z,16.47
2017-10-24T03:16:58.987Z,15.43
2017-10-24T03:19:28.074Z,17.33
2017-10-24T03:21:56.212Z,17.73
2017-10-24T03:24:24.311Z,17.97
2017-10-24T03:26:53.373Z,21.43
2017-10-24T03:29:21.509Z,20.30
2017-10-24T03:31:49.622Z,19.00
2017-10-24T03:34:33.341Z,18.97
2017-10-24T03:37:01.630Z,20.50
2017-10-24T03:42:31.362Z,20.97
2017-10-24T03:44:59.597Z,21.23
2017-10-24T03:47:29.797Z,20.53
2017-10-24T03:49:57.887Z,24.10
2017-10-24T03:52:26.062Z,23.70
2017-10-24T03:54:57.003Z,21.40
2017-10-24T03:57:25.135Z,21.70
2017-10-24T03:59:53.284Z,23.83
2017-10-24T04:02:21.446Z,22.87
2017-10-24T04:04:49.577Z,21.23
2017-10-24T04:07:17.686Z,22.53
2017-10-24T04:09:45.911Z,23.23
2017-10-24T04:12:14.033Z,25.50
2017-10-24T04:14:42.159Z,24.20
2017-10-24T04:17:25.627Z,28.20
2017-10-24T04:19:53.778Z,24.13
2017-10-24T04:22:33.387Z,26.63
2017-10-24T04:25:01.495Z,24.00
2017-10-24T04:27:29.625Z,20.70
2017-10-24T04:29:57.750Z,20.90
2017-10-24T04:32:25.908Z,22.20
2017-10-24T04:34:54.044Z,22.30
2017-10-24T04:37:22.189Z,21.67
2017-10-24T04:39:51.631Z,21.57
2017-10-24T04:42:21.653Z,20.40
2017-10-24T04:44:58.603Z,22.57
2017-10-24T04:47:26.705Z,23.30
2017-10-24T04:49:55.583Z,21.40
2017-10-24T04:52:24.458Z,20.50
2017-10-24T04:54:52.591Z,21.57
2017-10-24T04:57:20.695Z,18.00
2017-10-24T04:59:48.813Z,15.83
2017-10-24T05:02:17.704Z,15.63
2017-10-24T05:04:45.802Z,15.33
2017-10-24T05:09:49.812Z,16.67
2017-10-24T05:12:17.917Z,16.20
2017-10-24T05:14:46.047Z,15.90
2017-10-24T05:17:14.162Z,16.73
2017-10-24T05:19:42.285Z,16.20
2017-10-24T05:22:10.390Z,17.33
2017-10-24T05:24:38.519Z,20.30
2017-10-24T05:27:06.626Z,17.30
2017-10-24T05:29:34.746Z,17.80
2017-10-24T05:32:03.499Z,16.30
2017-10-24T05:34:31.601Z,17.40
2017-10-24T05:37:00.406Z,16.60
2017-10-24T05:39:28.517Z,15.23
2017-10-24T05:41:56.621Z,15.90
2017-10-24T05:44:24.745Z,16.17
2017-10-24T05:46:52.879Z,15.80
2017-10-24T05:49:21.383Z,15.70
2017-10-24T05:51:49.620Z,18.80
2017-10-24T05:54:18.661Z,17.23
2017-10-24T05:56:46.903Z,19.50
2017-10-24T05:59:15.803Z,16.27
2017-10-24T06:01:43.926Z,18.03
2017-10-24T06:04:12.093Z,20.17
2017-10-24T06:06:40.612Z,17.93
2017-10-24T06:09:08.739Z,20.73
2017-10-24T06:11:38.007Z,20.10
2017-10-24T06:14:12.450Z,18.63
2017-10-24T06:16:40.615Z,19.53
2017-10-24T06:19:08.775Z,16.90
2017-10-24T06:21:36.928Z,20.37
2017-10-24T06:24:05.040Z,19.20
2017-10-24T06:26:33.178Z,21.23
2017-10-24T06:29:02.094Z,24.57
2017-10-24T06:31:31.006Z,21.57
2017-10-24T06:33:59.138Z,21.77
2017-10-24T06:36:27.404Z,19.13
2017-10-24T06:38:55.570Z,18.97
2017-10-24T06:41:24.430Z,24.47
2017-10-24T06:43:52.619Z,21.47
2017-10-24T06:46:20.751Z,21.33
2017-10-24T06:48:48.919Z,24.23
2017-10-24T06:51:17.086Z,21.93
2017-10-24T06:53:45.427Z,23.50
2017-10-24T06:56:13.534Z,25.30
2017-10-24T06:58:41.646Z,27.10
2017-10-24T07:01:09.802Z,24.70
2017-10-24T07:03:37.990Z,21.10
2017-10-24T07:06:06.135Z,24.03
2017-10-24T07:08:34.261Z,21.87
2017-10-24T07:11:02.368Z,25.57
2017-10-24T07:13:31.258Z,24.40
2017-10-24T07:15:59.357Z,22.80
2017-10-24T07:18:29.389Z,21.20
2017-10-24T07:20:57.531Z,25.10
2017-10-24T07:23:25.685Z,22.00
2017-10-24T07:25:53.797Z,20.30
2017-10-24T07:28:22.351Z,21.77
2017-10-24T07:30:50.461Z,20.10
2017-10-24T07:33:18.585Z,20.77
2017-10-24T07:35:46.700Z,19.70
2017-10-24T07:38:14.824Z,19.57
2017-10-24T07:40:42.929Z,20.30
2017-10-24T07:43:11.125Z,18.80
2017-10-24T07:45:39.394Z,19.27
2017-10-24T07:48:08.240Z,18.57
2017-10-24T07:50:38.119Z,17.20
2017-10-24T07:53:06.265Z,21.67
2017-10-24T07:55:34.946Z,17.17
2017-10-24T07:58:03.765Z,14.87
2017-10-24T08:00:31.863Z,19.87
2017-10-24T08:03:00.721Z,16.73
2017-10-24T08:05:28.841Z,12.60
2017-10-24T08:07:56.948Z,17.43
2017-10-24T08:10:25.818Z,16.30
2017-10-24T08:12:54.691Z,14.60
2017-10-24T08:15:23.587Z,14.10
2017-10-24T08:17:51.690Z,15.43
2017-10-24T08:20:19.850Z,22.07
2017-10-24T08:22:47.949Z,16.97
2017-10-24T08:25:16.089Z,20.30
2017-10-24T08:27:44.995Z,21.40
2017-10-24T08:30:13.157Z,14.93
2017-10-24T08:32:41.286Z,16.40
2017-10-24T08:35:10.234Z,18.40
2017-10-24T08:37:38.343Z,18.13
2017-10-24T08:40:06.460Z,20.43
2017-10-24T08:42:35.234Z,19.17
2017-10-24T08:45:04.128Z,16.53
2017-10-24T08:47:32.258Z,19.87
2017-10-24T08:50:00.389Z,19.83
2017-10-24T08:52:29.253Z,15.87
2017-10-24T08:54:57.359Z,18.37
2017-10-24T08:57:26.313Z,21.27
2017-10-24T08:59:54.459Z,18.60
2017-10-24T09:02:22.617Z,20.47
2017-10-24T09:04:52.119Z,19.37
2017-10-24T09:07:23.035Z,17.57
2017-10-24T09:09:51.157Z,17.97
2017-10-24T09:12:19.301Z,17.30
2017-10-24T09:14:47.435Z,21.10
2017-10-24T09:17:37.257Z,20.37
2017-10-24T09:20:09.298Z,20.53
2017-10-24T09:22:37.644Z,23.80
2017-10-24T09:25:05.751Z,23.33
2017-10-24T09:27:33.860Z,24.60
2017-10-24T09:30:02.011Z,22.50
2017-10-24T09:32:30.705Z,20.87
2017-10-24T09:34:58.898Z,24.93
2017-10-24T09:37:27.017Z,23.43
2017-10-24T09:39:55.181Z,26.37
2017-10-24T09:42:24.539Z,24.67
2017-10-24T09:44:52.731Z,25.40
2017-10-24T09:47:22.281Z,24.43
2017-10-24T09:49:58.133Z,21.40
2017-10-24T09:52:26.288Z,25.47
2017-10-24T09:54:54.397Z,23.43
2017-10-24T09:57:22.756Z,25.53
2017-10-24T09:59:51.752Z,26.23
2017-10-24T10:02:27.043Z,25.87
2017-10-24T10:04:55.148Z,25.20
2017-10-24T10:07:23.266Z,27.20
2017-10-24T10:09:51.382Z,32.80
2017-10-24T10:12:19.805Z,28.23
2017-10-24T10:14:48.756Z,31.57
2017-10-24T10:17:16.908Z,28.13
2017-10-24T10:19:45.077Z,27.00
2017-10-24T10:22:13.181Z,26.93
2017-10-24T10:24:41.542Z,27.60
2017-10-24T10:27:09.638Z,25.53
2017-10-24T10:29:37.783Z,31.87
2017-10-24T10:32:25.792Z,25.90
2017-10-24T10:34:54.004Z,30.50
2017-10-24T10:37:22.123Z,32.27
2017-10-24T10:39:50.289Z,32.10
2017-10-24T10:42:18.492Z,30.10
2017-10-24T10:44:46.631Z,32.73
2017-10-24T10:47:15.511Z,33.77
2017-10-24T10:49:43.747Z,31.37
2017-10-24T10:52:11.916Z,31.63
2017-10-24T10:57:29.100Z,26.57
2017-10-24T10:59:57.778Z,30.60
2017-10-24T11:02:25.935Z,29.63
2017-10-24T11:04:54.055Z,29.47
2017-10-24T11:07:22.258Z,26.90
2017-10-24T11:09:50.466Z,29.10
2017-10-24T11:12:18.611Z,26.80
2017-10-24T11:14:46.711Z,26.70
2017-10-24T11:17:14.856Z,28.40
2017-10-24T11:19:42.938Z,28.57
2017-10-24T11:22:11.062Z,26.00
2017-10-24T11:24:39.218Z,26.50
2017-10-24T11:27:08.078Z,24.23
2017-10-24T11:29:36.225Z,26.23
2017-10-24T11:32:04.491Z,28.80
2017-10-24T11:34:32.623Z,24.43
2017-10-24T11:37:00.774Z,22.83
2017-10-24T11:39:29.735Z,25.90
2017-10-24T11:41:57.908Z,23.33
2017-10-24T11:44:26.844Z,27.23
2017-10-24T11:46:56.859Z,22.17
2017-10-24T11:49:25.107Z,22.47
2017-10-24T11:51:54.244Z,22.70
2017-10-24T11:54:22.394Z,26.80
2017-10-24T11:56:51.287Z,26.53
2017-10-24T11:59:19.385Z,27.43
2017-10-24T12:01:47.722Z,24.60
2017-10-24T12:04:15.959Z,22.87
2017-10-24T12:06:44.086Z,22.00
2017-10-24T12:09:12.208Z,21.17
2017-10-24T12:11:40.366Z,18.40
2017-10-24T12:14:08.482Z,21.57
2017-10-24T12:16:36.603Z,20.03
2017-10-24T12:19:05.647Z,19.70
2017-10-24T12:21:33.762Z,18.60
2017-10-24T12:24:01.903Z,18.10
2017-10-24T12:26:31.003Z,17.83
2017-10-24T12:28:59.193Z,17.10
2017-10-24T12:31:29.743Z,17.50
2017-10-24T12:33:57.870Z,17.77
2017-10-24T12:36:26.013Z,17.90
2017-10-24T12:38:54.139Z,16.00
2017-10-24T12:41:23.945Z,18.03
2017-10-24T12:43:55.485Z,16.37
2017-10-24T12:46:32.327Z,18.60
2017-10-24T12:49:01.361Z,14.63
2017-10-24T12:51:29.464Z,14.20
2017-10-24T12:53:58.339Z,14.40
2017-10-24T12:56:26.504Z,15.17
2017-10-24T12:58:55.495Z,15.23
2017-10-24T13:01:23.654Z,13.27
2017-10-24T13:03:51.773Z,14.80
2017-10-24T13:06:19.908Z,12.80
2017-10-24T13:08:48.025Z,11.90
2017-10-24T13:11:16.707Z,12.63
2017-10-24T13:13:44.955Z,13.80
2017-10-24T13:16:13.157Z,14.83
2017-10-24T13:18:41.285Z,14.13
2017-10-24T13:21:09.410Z,14.30
2017-10-24T13:23:37.577Z,14.40
2017-10-24T13:26:05.880Z,14.80
2017-10-24T13:28:35.019Z,13.63
2017-10-24T13:31:04.091Z,14.57
2017-10-24T13:33:32.341Z,13.87
2017-10-24T13:36:00.592Z,12.33
2017-10-24T13:38:28.949Z,12.00
2017-10-24T13:40:57.075Z,12.40
2017-10-24T13:43:25.207Z,12.23
2017-10-24T13:45:53.334Z,11.47
2017-10-24T13:48:22.384Z,12.37
2017-10-24T13:50:50.610Z,10.43
2017-10-24T13:53:18.757Z,11.00
2017-10-24T13:55:46.974Z,12.30
2017-10-24T13:58:16.295Z,13.30
2017-10-24T14:00:44.456Z,11.90
2017-10-24T14:03:12.624Z,13.13
2017-10-24T14:05:46.424Z,12.47
2017-10-24T14:21:47.102Z,10.87
2017-10-24T14:24:15.415Z,12.33
2017-10-24T14:26:43.542Z,11.90
2017-10-24T14:29:11.646Z,12.80
2017-10-24T14:31:39.759Z,11.70
2017-10-24T14:34:07.854Z,11.90
2017-10-24T14:36:36.009Z,13.80
2017-10-24T14:39:04.164Z,14.07
2017-10-24T14:41:32.335Z,14.87
2017-10-24T14:44:00.443Z,13.13
2017-10-24T14:46:28.627Z,13.40
2017-10-24T14:48:56.754Z,13.70
2017-10-24T14:51:25.014Z,13.77
2017-10-24T14:53:53.104Z,15.40
2017-10-24T14:56:22.139Z,15.37
2017-10-24T14:58:51.146Z,14.50
2017-10-24T15:01:19.485Z,13.70
2017-10-24T15:03:47.627Z,13.13
2017-10-24T15:06:15.743Z,14.53
2017-10-24T15:08:43.901Z,12.60
2017-10-24T15:11:13.018Z,13.80
2017-10-24T15:13:41.255Z,15.00
2017-10-24T15:16:09.423Z,14.93
2017-10-24T15:18:37.646Z,14.67
2017-10-24T15:21:05.759Z,14.90
2017-10-24T15:23:33.886Z,16.67
2017-10-24T15:26:02.789Z,18.23
2017-10-24T15:28:30.889Z,18.47
2017-10-24T15:30:59.004Z,19.43
2017-10-24T15:33:27.089Z,20.80
2017-10-24T15:35:55.522Z,18.67
2017-10-24T15:38:23.633Z,21.30
2017-10-24T15:40:51.737Z,20.60
2017-10-24T15:43:19.969Z,21.90
2017-10-24T15:45:48.975Z,21.70
2017-10-24T15:48:18.012Z,21.20
2017-10-24T15:50:46.268Z,20.73
2017-10-24T15:53:14.406Z,20.30
2017-10-24T15:55:42.535Z,19.00
2017-10-24T15:58:10.873Z,20.43
2017-10-24T16:00:40.727Z,21.70
2017-10-24T16:03:08.868Z,20.43
2017-10-24T16:05:36.983Z,19.93
2017-10-24T16:08:27.592Z,20.33
2017-10-24T16:10:55.687Z,17.93
2017-10-24T16:13:23.818Z,19.40
2017-10-24T16:15:51.930Z,19.53
2017-10-24T16:18:20.044Z,19.43
2017-10-24T16:20:48.218Z,19.97
2017-10-24T16:23:16.371Z,17.77
2017-10-24T16:28:39.966Z,17.47
2017-10-24T16:31:08.088Z,18.70
2017-10-24T16:33:37.250Z,18.13
2017-10-24T16:36:05.540Z,18.20
2017-10-24T16:38:35.702Z,18.30
2017-10-24T16:41:03.851Z,18.43
2017-10-24T16:43:32.005Z,19.57
2017-10-24T16:46:00.171Z,22.00
2017-10-24T16:48:28.601Z,20.50
2017-10-24T16:50:57.548Z,18.50
2017-10-24T16:53:30.458Z,20.33
2017-10-24T16:55:58.700Z,23.90
2017-10-24T16:58:29.637Z,19.60
2017-10-24T17:01:00.828Z,20.27
2017-10-24T17:03:41.404Z,20.43
2017-10-24T17:06:09.589Z,18.07
2017-10-24T17:08:37.815Z,18.63
2017-10-24T17:11:05.939Z,17.63
2017-10-24T17:13:34.064Z,19.57
2017-10-24T17:16:02.485Z,18.77
2017-10-24T17:18:30.721Z,17.83
2017-10-24T17:20:59.188Z,19.60
2017-10-24T17:23:27.643Z,18.30
2017-10-24T17:25:55.963Z,18.80
2017-10-24T17:28:32.149Z,18.00
2017-10-24T17:31:01.101Z,17.93
2017-10-24T17:33:29.348Z,18.00
2017-10-24T17:35:57.494Z,18.97
2017-10-24T17:38:26.081Z,18.23
2017-10-24T17:40:54.339Z,18.13
2017-10-24T17:43:23.606Z,17.50
2017-10-24T17:45:51.861Z,17.87
2017-10-24T17:48:20.088Z,18.20
2017-10-24T17:50:48.754Z,18.53
2017-10-24T17:53:17.424Z,17.97
2017-10-24T17:55:47.527Z,20.20
2017-10-24T17:58:16.407Z,18.37
2017-10-24T18:00:47.359Z,19.07
2017-10-24T18:03:17.435Z,17.87
2017-10-24T18:05:54.463Z,18.03
2017-10-24T18:08:22.675Z,18.23
2017-10-24T18:10:52.936Z,18.30
2017-10-24T18:13:21.079Z,18.00
2017-10-24T18:15:49.623Z,19.90
2017-10-24T18:18:17.831Z,18.30
2017-10-24T18:21:05.172Z,18.50
2017-10-24T18:23:33.558Z,20.27
2017-10-24T18:26:01.738Z,17.90
2017-10-24T18:28:33.160Z,19.30
2017-10-24T18:31:03.308Z,18.30
2017-10-24T18:33:31.753Z,20.27
2017-10-24T18:36:00.695Z,19.63
2017-10-24T18:38:29.689Z,17.77
2017-10-24T18:40:57.788Z,20.20
2017-10-24T18:43:27.251Z,22.45
2017-10-24T18:45:56.565Z,20.63
2017-10-24T18:48:25.479Z,19.70
2017-10-24T18:50:53.622Z,22.40
2017-10-24T18:53:21.893Z,21.87
2017-10-24T18:55:50.079Z,22.50
2017-10-24T18:58:30.692Z,22.80
2017-10-24T19:00:58.853Z,21.47
2017-10-24T19:03:27.153Z,22.80
2017-10-24T19:05:55.398Z,23.10
2017-10-24T19:08:23.787Z,21.50
2017-10-24T19:10:58.748Z,23.43
2017-10-24T19:13:26.904Z,22.90
2017-10-24T19:15:55.084Z,23.33
2017-10-24T19:18:23.322Z,19.60
2017-10-24T19:20:51.462Z,21.20
2017-10-24T19:23:19.583Z,20.17
2017-10-24T19:25:47.767Z,23.97
2017-10-24T19:28:16.685Z,21.43
2017-10-24T19:30:44.809Z,23.80
2017-10-24T19:33:18.319Z,26.07
2017-10-24T19:35:46.434Z,26.60
2017-10-24T19:38:15.369Z,24.93
2017-10-24T19:40:43.605Z,28.20
2017-10-24T19:43:11.799Z,26.77
2017-10-24T19:45:40.200Z,25.90
2017-10-24T19:48:08.344Z,29.93
2017-10-24T19:50:36.516Z,32.33
2017-10-24T19:53:04.659Z,29.60
2017-10-24T19:55:33.607Z,25.77
2017-10-24T19:58:01.775Z,26.97
2017-10-24T20:00:29.922Z,30.80
2017-10-24T20:02:58.117Z,30.03
2017-10-24T20:05:27.263Z,28.17
2017-10-24T20:07:55.371Z,25.40
2017-10-24T20:10:23.510Z,32.77
2017-10-24T20:12:51.721Z,33.53
2017-10-24T20:15:19.832Z,35.17
2017-10-24T20:17:48.043Z,30.40
2017-10-24T20:20:16.252Z,33.20
2017-10-24T20:22:44.406Z,30.93
2017-10-24T20:25:12.572Z,31.70
2017-10-24T20:27:40.786Z,36.77
2017-10-24T20:30:08.933Z,33.37
2017-10-24T20:32:37.136Z,31.23
2017-10-24T20:35:05.387Z,31.70
2017-10-24T20:37:34.367Z,29.93
2017-10-24T20:40:03.292Z,32.50
2017-10-24T20:42:31.450Z,30.07
2017-10-24T20:45:07.333Z,30.67
2017-10-24T20:47:36.236Z,33.10
2017-10-24T20:50:04.348Z,31.43
2017-10-24T20:52:35.380Z,30.27
2017-10-24T20:55:15.687Z,32.50
2017-10-24T20:57:43.855Z,29.60
2017-10-24T21:03:04.199Z,29.80
2017-10-24T21:05:38.342Z,29.90
2017-10-24T21:08:06.468Z,30.87
2017-10-24T21:10:34.602Z,30.40
2017-10-24T21:13:04.679Z,27.20
2017-10-24T21:15:32.842Z,26.60
2017-10-24T21:18:01.727Z,28.80
2017-10-24T21:20:29.912Z,27.80
2017-10-24T21:22:58.038Z,28.23
2017-10-24T21:25:26.178Z,29.60
2017-10-24T21:27:55.159Z,26.70
2017-10-24T21:30:23.338Z,27.97
2017-10-24T21:32:51.485Z,30.70
2017-10-24T21:35:20.446Z,26.93
2017-10-24T21:37:48.583Z,23.23
2017-10-24T21:40:17.083Z,25.73
2017-10-24T21:42:45.235Z,28.57
2017-10-24T21:45:14.932Z,26.13
2017-10-24T21:47:43.115Z,26.57
2017-10-24T21:50:13.241Z,26.77
2017-10-24T21:52:41.419Z,31.50
2017-10-24T21:55:12.638Z,25.33
2017-10-24T21:57:40.750Z,25.93
2017-10-24T22:00:11.128Z,23.27
2017-10-24T22:02:39.260Z,24.13
2017-10-24T22:05:07.373Z,23.10
2017-10-24T22:07:35.525Z,23.70
2017-10-24T22:10:05.607Z,18.77
2017-10-24T22:12:34.523Z,23.47
2017-10-24T22:15:02.701Z,24.20
2017-10-24T22:17:30.887Z,20.80
2017-10-24T22:20:11.010Z,21.80
2017-10-24T22:22:39.192Z,21.97
2017-10-24T22:25:07.301Z,23.30
2017-10-24T22:27:35.449Z,23.63
2017-10-24T22:30:03.684Z,22.97
2017-10-24T22:32:31.806Z,21.70
2017-10-24T22:34:59.938Z,23.47
2017-10-24T22:37:28.055Z,22.40
2017-10-24T22:39:56.199Z,27.20
2017-10-24T22:42:24.402Z,22.40
2017-10-24T22:44:52.539Z,22.47
2017-10-24T22:47:20.658Z,23.47
2017-10-24T22:49:48.811Z,22.67
2017-10-24T22:52:17.695Z,22.80
2017-10-24T22:54:51.831Z,20.13
2017-10-24T22:57:19.971Z,24.20
2017-10-24T22:59:48.100Z,21.83
2017-10-24T23:02:16.231Z,19.43
2017-10-24T23:13:38.822Z,27.60
2017-10-24T23:16:06.955Z,25.40
2017-10-24T23:18:35.850Z,24.27
2017-10-24T23:21:04.533Z,24.20
2017-10-24T23:23:33.769Z,24.17
2017-10-24T23:26:01.908Z,23.17
2017-10-24T23:28:30.023Z,24.47
2017-10-24T23:30:59.206Z,21.07
2017-10-24T23:33:27.330Z,24.13
2017-10-24T23:35:55.462Z,27.17
2017-10-24T23:38:31.210Z,23.00
2017-10-24T23:41:00.562Z,22.70
2017-10-24T23:43:28.700Z,25.07
2017-10-24T23:45:56.858Z,23.63
2017-10-24T23:48:25.119Z,23.40
2017-10-24T23:50:53.290Z,22.47
2017-10-24T23:53:21.440Z,24.40
2017-10-24T23:55:49.583Z,24.50
2017-10-24T23:58:29.282Z,23.43
